sensor_id;sensor_type;location;lat;lon;timestamp;P1;durP1;ratioP1;P2;durP2;ratioP2
15557;SDS011;7880;50.110;9.372;2023-10-08T00:00:43;7.700000000000002;;;3.2999999999999994;;
15557;SDS011;7880;50.110;9.372;2023-10-08T00:05:22;12.538461538461538;;;4.730769230769231;;
15557;SDS011;7880;50.110;9.372;2023-10-08T00:10:29;6.330769230769231;;;3.7999999999999994;;
15557;SDS011;7880;50.110;9.372;2023-10-08T00:15:36;7.807692307692306;;;4.06923076923077;;
15557;SDS011;7880;50.110;9.372;2023-10-08T00:20:48;5.46923076923077;;;3.2999999999999994;;
15557;SDS011;7880;50.110;9.372;2023-10-08T00:25:47;6.869230769230768;;;3.630769230769232;;
15557;SDS011;7880;50.110;9.372;2023-10-08T00:30:46;6.207692307692307;;;3.600000000000001;;
15557;SDS011;7880;50.110;9.372;2023-10-08T00:35:49;5.46923076923077;;;3.2999999999999994;;
15557;SDS011;7880;50.110;9.372;2023-10-08T00:40:55;6.307692307692306;;;3.469230769230769;;
15557;SDS011;7880;50.110;9.372;2023-10-08T00:45:59;12.307692307692308;;;3.2;;
15557;SDS011;7880;50.110;9.372;2023-10-08T00:51:15;7.738461538461536;;;3.630769230769232;;
15557;SDS011;7880;50.110;9.372;2023-10-08T00:56:12;5.769230769230769;;;3.600000000000001;;
15557;SDS011;7880;50.110;9.372;2023-10-08T01:01:12;4.33076923076923;;;3.2999999999999994;;
15557;SDS011;7880;50.110;9.372;2023-10-08T01:06:18;5.423076923076923;;;3.100000000000001;;
15557;SDS011;7880;50.110;9.372;2023-10-08T01:11:31;6.538461538461541;;;3.56923076923077;;
15557;SDS011;7880;50.110;9.372;2023-10-08T01:16:27;4.3999999999999995;;;3.100000000000001;;
15557;SDS011;7880;50.110;9.372;2023-10-08T01:21:34;7.93076923076923;;;4.16923076923077;;
15557;SDS011;7880;50.110;9.372;2023-10-08T01:26:34;4.269230769230769;;;2.899999999999999;;
15557;SDS011;7880;50.110;9.372;2023-10-08T01:31:38;5.700000000000002;;;3.399999999999999;;
15557;SDS011;7880;50.110;9.372;2023-10-08T01:36:45;4.8999999999999995;;;3.2999999999999994;;
15557;SDS011;7880;50.110;9.372;2023-10-08T01:41:47;6.738461538461536;;;3.6692307692307695;;
15557;SDS011;7880;50.110;9.372;2023-10-08T01:46:53;7.63846153846154;;;3.2307692307692295;;
15557;SDS011;7880;50.110;9.372;2023-10-08T01:51:54;4.484615384615384;;;3.2;;
15557;SDS011;7880;50.110;9.372;2023-10-08T01:56:59;6.330769230769231;;;3.100000000000001;;
15557;SDS011;7880;50.110;9.372;2023-10-08T02:02:05;8.584615384615384;;;3.43076923076923;;
15557;SDS011;7880;50.110;9.372;2023-10-08T02:07:08;7.60769230769231;;;4.269230769230769;;
15557;SDS011;7880;50.110;9.372;2023-10-08T02:12:14;6.369230769230768;;;3.2307692307692295;;
15557;SDS011;7880;50.110;9.372;2023-10-08T02:17:17;6.93846153846154;;;3.3615384615384616;;
15557;SDS011;7880;50.110;9.372;2023-10-08T02:22:20;7.06153846153846;;;3.3307692307692305;;
15557;SDS011;7880;50.110;9.372;2023-10-08T02:27:25;5.838461538461538;;;3.5;;
15557;SDS011;7880;50.110;9.372;2023-10-08T02:32:29;7.39230769230769;;;3.7307692307692295;;
15557;SDS011;7880;50.110;9.372;2023-10-08T02:37:35;7.338461538461539;;;3.600000000000001;;
15557;SDS011;7880;50.110;9.372;2023-10-08T02:42:38;7.992307692307692;;;4.0307692307692315;;
15557;SDS011;7880;50.110;9.372;2023-10-08T02:47:45;6.676923076923078;;;3.6692307692307695;;
15557;SDS011;7880;50.110;9.372;2023-10-08T02:52:50;6.407692307692309;;;3.169230769230769;;
15557;SDS011;7880;50.110;9.372;2023-10-08T02:57:50;8.630769230769232;;;3.7000000000000006;;
15557;SDS011;7880;50.110;9.372;2023-10-08T03:02:35;7.561538461538465;;;3.6538461538461537;;
15557;SDS011;7880;50.110;9.372;2023-10-08T03:07:45;8.400000000000002;;;3.43076923076923;;
15557;SDS011;7880;50.110;9.372;2023-10-08T03:12:50;12.346153846153847;;;4.16923076923077;;
15557;SDS011;7880;50.110;9.372;2023-10-08T03:18:37;6.261538461538464;;;3.161538461538461;;
15557;SDS011;7880;50.110;9.372;2023-10-08T03:23:46;10.307692307692308;;;3.130769230769232;;
15557;SDS011;7880;50.110;9.372;2023-10-08T03:28:43;8.10769230769231;;;3.2692307692307705;;
15557;SDS011;7880;50.110;9.372;2023-10-08T03:33:49;9.161538461538463;;;3.7000000000000006;;
15557;SDS011;7880;50.110;9.372;2023-10-08T03:38:51;11.007692307692308;;;4.3999999999999995;;
15557;SDS011;7880;50.110;9.372;2023-10-08T03:44:01;5.384615384615385;;;3.530769230769231;;
15557;SDS011;7880;50.110;9.372;2023-10-08T03:49:04;6.13846153846154;;;3.2999999999999994;;
15557;SDS011;7880;50.110;9.372;2023-10-08T03:54:15;6.815384615384615;;;3.7000000000000006;;
15557;SDS011;7880;50.110;9.372;2023-10-08T03:59:12;6.0;;;3.2;;
15557;SDS011;7880;50.110;9.372;2023-10-08T04:04:14;10.769230769230765;;;4.200000000000001;;
15557;SDS011;7880;50.110;9.372;2023-10-08T04:09:21;9.838461538461539;;;3.869230769230768;;
15557;SDS011;7880;50.110;9.372;2023-10-08T04:14:22;10.846153846153847;;;4.16923076923077;;
15557;SDS011;7880;50.110;9.372;2023-10-08T04:19:27;9.592307692307692;;;3.869230769230768;;
15557;SDS011;7880;50.110;9.372;2023-10-08T04:24:35;6.438461538461538;;;3.0;;
15557;SDS011;7880;50.110;9.372;2023-10-08T04:29:42;11.899999999999997;;;4.33076923076923;;
15557;SDS011;7880;50.110;9.372;2023-10-08T04:34:46;9.076923076923078;;;4.3999999999999995;;
15557;SDS011;7880;50.110;9.372;2023-10-08T04:39:47;9.607692307692309;;;3.7000000000000006;;
15557;SDS011;7880;50.110;9.372;2023-10-08T04:44:52;17.215384615384618;;;3.399999999999999;;
15557;SDS011;7880;50.110;9.372;2023-10-08T04:49:54;10.876923076923076;;;4.06923076923077;;
15557;SDS011;7880;50.110;9.372;2023-10-08T04:55:12;9.93846153846154;;;4.93076923076923;;
15557;SDS011;7880;50.110;9.372;2023-10-08T05:00:13;7.438461538461538;;;3.56923076923077;;
15557;SDS011;7880;50.110;9.372;2023-10-08T05:05:38;8.930769230769231;;;3.600000000000001;;
15557;SDS011;7880;50.110;9.372;2023-10-08T05:10:45;8.807692307692308;;;4.6692307692307695;;
15557;SDS011;7880;50.110;9.372;2023-10-08T05:15:33;6.769230769230769;;;3.8307692307692305;;
15557;SDS011;7880;50.110;9.372;2023-10-08T05:20:58;5.438461538461538;;;3.5;;
15557;SDS011;7880;50.110;9.372;2023-10-08T05:26:31;8.238461538461536;;;4.430769230769231;;
15557;SDS011;7880;50.110;9.372;2023-10-08T05:31:36;6.438461538461538;;;3.7999999999999994;;
15557;SDS011;7880;50.110;9.372;2023-10-08T05:36:28;8.176923076923076;;;4.33076923076923;;
15557;SDS011;7880;50.110;9.372;2023-10-08T05:41:39;10.746153846153849;;;3.838461538461539;;
15557;SDS011;7880;50.110;9.372;2023-10-08T05:47:22;6.230769230769231;;;3.93076923076923;;
15557;SDS011;7880;50.110;9.372;2023-10-08T05:52:50;5.869230769230768;;;3.369230769230768;;
15557;SDS011;7880;50.110;9.372;2023-10-08T05:57:46;8.738461538461538;;;4.3999999999999995;;
15557;SDS011;7880;50.110;9.372;2023-10-08T06:02:48;7.707692307692307;;;3.7000000000000006;;
15557;SDS011;7880;50.110;9.372;2023-10-08T06:07:49;7.823076923076922;;;3.399999999999999;;
15557;SDS011;7880;50.110;9.372;2023-10-08T06:13:02;6.13846153846154;;;4.0;;
15557;SDS011;7880;50.110;9.372;2023-10-08T06:18:04;6.730769230769231;;;3.7000000000000006;;
15557;SDS011;7880;50.110;9.372;2023-10-08T06:23:03;6.13846153846154;;;3.600000000000001;;
15557;SDS011;7880;50.110;9.372;2023-10-08T06:28:45;8.569230769230769;;;3.7000000000000006;;
15557;SDS011;7880;50.110;9.372;2023-10-08T06:33:48;12.676923076923076;;;4.6000000000000005;;
15557;SDS011;7880;50.110;9.372;2023-10-08T06:38:50;7.538461538461541;;;3.899999999999999;;
15557;SDS011;7880;50.110;9.372;2023-10-08T06:44:03;7.038461538461541;;;3.43076923076923;;
15557;SDS011;7880;50.110;9.372;2023-10-08T06:48:58;9.146153846153846;;;3.56923076923077;;
15557;SDS011;7880;50.110;9.372;2023-10-08T06:54:11;7.969230769230771;;;3.8307692307692305;;
15557;SDS011;7880;50.110;9.372;2023-10-08T06:59:09;5.03076923076923;;;3.43076923076923;;
15557;SDS011;7880;50.110;9.372;2023-10-08T07:04:13;7.13846153846154;;;4.5;;
15557;SDS011;7880;50.110;9.372;2023-10-08T07:14:28;11.646153846153847;;;4.469230769230769;;
15557;SDS011;7880;50.110;9.372;2023-10-08T07:19:37;9.576923076923078;;;4.0;;
15557;SDS011;7880;50.110;9.372;2023-10-08T07:24:35;8.492307692307689;;;3.953846153846153;;
15557;SDS011;7880;50.110;9.372;2023-10-08T07:29:37;8.799999999999999;;;3.7999999999999994;;
15557;SDS011;7880;50.110;9.372;2023-10-08T07:34:44;10.569230769230769;;;3.93076923076923;;
15557;SDS011;7880;50.110;9.372;2023-10-08T07:39:54;7.784615384615386;;;4.299999999999999;;
15557;SDS011;7880;50.110;9.372;2023-10-08T07:44:55;7.761538461538464;;;3.8307692307692305;;
15557;SDS011;7880;50.110;9.372;2023-10-08T07:50:11;5.869230769230768;;;3.7999999999999994;;
15557;SDS011;7880;50.110;9.372;2023-10-08T07:55:06;7.5;;;3.600000000000001;;
15557;SDS011;7880;50.110;9.372;2023-10-08T08:00:18;13.31538461538461;;;3.6307692307692316;;
15557;SDS011;7880;50.110;9.372;2023-10-08T08:05:10;10.576923076923078;;;4.299999999999999;;
15557;SDS011;7880;50.110;9.372;2023-10-08T08:08:49;7.400000000000001;;;4.200000000000001;;
15557;SDS011;7880;50.110;9.372;2023-10-08T08:13:52;6.56923076923077;;;3.7999999999999994;;
15557;SDS011;7880;50.110;9.372;2023-10-08T08:18:57;7.700000000000002;;;3.600000000000001;;
15557;SDS011;7880;50.110;9.372;2023-10-08T08:24:05;9.13076923076923;;;3.899999999999999;;
15557;SDS011;7880;50.110;9.372;2023-10-08T08:29:09;8.099999999999998;;;3.9615384615384617;;
15557;SDS011;7880;50.110;9.372;2023-10-08T08:34:19;10.63846153846154;;;4.769230769230769;;
15557;SDS011;7880;50.110;9.372;2023-10-08T08:39:28;10.838461538461539;;;4.0;;
15557;SDS011;7880;50.110;9.372;2023-10-08T08:44:27;7.469230769230771;;;4.430769230769231;;
15557;SDS011;7880;50.110;9.372;2023-10-08T08:49:34;8.876923076923076;;;3.7999999999999994;;
15557;SDS011;7880;50.110;9.372;2023-10-08T08:54:36;8.561538461538461;;;3.7000000000000006;;
15557;SDS011;7880;50.110;9.372;2023-10-08T08:59:43;7.261538461538464;;;3.792307692307692;;
15557;SDS011;7880;50.110;9.372;2023-10-08T09:04:47;9.046153846153848;;;4.16923076923077;;
15557;SDS011;7880;50.110;9.372;2023-10-08T09:09:57;9.807692307692308;;;4.5;;
15557;SDS011;7880;50.110;9.372;2023-10-08T09:15:10;7.730769230769231;;;4.561538461538462;;
15557;SDS011;7880;50.110;9.372;2023-10-08T09:20:08;8.030769230769229;;;4.161538461538461;;
15557;SDS011;7880;50.110;9.372;2023-10-08T09:25:07;9.93846153846154;;;4.569230769230769;;
15557;SDS011;7880;50.110;9.372;2023-10-08T09:30:19;12.023076923076928;;;5.6;;
15557;SDS011;7880;50.110;9.372;2023-10-08T09:35:17;8.46153846153846;;;4.469230769230769;;
15557;SDS011;7880;50.110;9.372;2023-10-08T09:40:21;9.653846153846153;;;4.8999999999999995;;
15557;SDS011;7880;50.110;9.372;2023-10-08T09:45:28;11.738461538461536;;;4.746153846153847;;
15557;SDS011;7880;50.110;9.372;2023-10-08T09:50:36;7.438461538461538;;;4.6692307692307695;;
15557;SDS011;7880;50.110;9.372;2023-10-08T09:55:43;8.292307692307693;;;4.700000000000001;;
15557;SDS011;7880;50.110;9.372;2023-10-08T10:00:45;11.423076923076925;;;5.0307692307692315;;
15557;SDS011;7880;50.110;9.372;2023-10-08T10:05:51;10.215384615384615;;;4.792307692307692;;
15557;SDS011;7880;50.110;9.372;2023-10-08T10:10:58;10.93846153846154;;;4.6000000000000005;;
15557;SDS011;7880;50.110;9.372;2023-10-08T10:16:07;8.215384615384613;;;4.469230769230769;;
15557;SDS011;7880;50.110;9.372;2023-10-08T10:21:39;10.584615384615384;;;4.461538461538462;;
15557;SDS011;7880;50.110;9.372;2023-10-08T10:26:24;9.146153846153846;;;4.269230769230769;;
15557;SDS011;7880;50.110;9.372;2023-10-08T10:31:27;11.86153846153846;;;5.200000000000001;;
15557;SDS011;7880;50.110;9.372;2023-10-08T10:36:33;8.530769230769229;;;4.730769230769231;;
15557;SDS011;7880;50.110;9.372;2023-10-08T10:41:48;10.507692307692308;;;4.938461538461538;;
15557;SDS011;7880;50.110;9.372;2023-10-08T10:46:50;11.146153846153847;;;4.799999999999999;;
15557;SDS011;7880;50.110;9.372;2023-10-08T10:51:57;10.592307692307694;;;5.53076923076923;;
15557;SDS011;7880;50.110;9.372;2023-10-08T10:57:03;12.953846153846154;;;5.730769230769231;;
15557;SDS011;7880;50.110;9.372;2023-10-08T11:02:08;15.415384615384614;;;5.769230769230769;;
15557;SDS011;7880;50.110;9.372;2023-10-08T11:07:06;10.646153846153847;;;4.861538461538462;;
15557;SDS011;7880;50.110;9.372;2023-10-08T11:12:12;7.538461538461541;;;4.299999999999999;;
15557;SDS011;7880;50.110;9.372;2023-10-08T11:17:16;11.953846153846154;;;5.130769230769232;;
15557;SDS011;7880;50.110;9.372;2023-10-08T11:22:28;9.284615384615382;;;4.761538461538462;;
15557;SDS011;7880;50.110;9.372;2023-10-08T11:27:29;15.146153846153844;;;5.3307692307692305;;
15557;SDS011;7880;50.110;9.372;2023-10-08T11:32:32;8.5;;;4.630769230769232;;
15557;SDS011;7880;50.110;9.372;2023-10-08T11:37:45;12.8;;;4.761538461538462;;
15557;SDS011;7880;50.110;9.372;2023-10-08T11:42:51;10.969230769230771;;;5.061538461538462;;
15557;SDS011;7880;50.110;9.372;2023-10-08T11:47:45;10.230769230769234;;;4.461538461538462;;
15557;SDS011;7880;50.110;9.372;2023-10-08T11:52:50;11.238461538461536;;;4.530769230769231;;
15557;SDS011;7880;50.110;9.372;2023-10-08T11:57:54;11.269230769230765;;;6.1;;
15557;SDS011;7880;50.110;9.372;2023-10-08T12:03:01;12.976923076923072;;;5.1000000000000005;;
15557;SDS011;7880;50.110;9.372;2023-10-08T12:08:08;9.93846153846154;;;5.0;;
15557;SDS011;7880;50.110;9.372;2023-10-08T12:13:10;10.19230769230769;;;4.461538461538461;;
15557;SDS011;7880;50.110;9.372;2023-10-08T12:18:15;11.369230769230771;;;4.5;;
15557;SDS011;7880;50.110;9.372;2023-10-08T12:23:25;7.869230769230768;;;4.5;;
15557;SDS011;7880;50.110;9.372;2023-10-08T12:28:24;11.530769230769229;;;5.338461538461538;;
15557;SDS011;7880;50.110;9.372;2023-10-08T12:33:31;11.72307692307692;;;5.3307692307692305;;
15557;SDS011;7880;50.110;9.372;2023-10-08T12:38:37;12.176923076923076;;;6.669230769230769;;
15557;SDS011;7880;50.110;9.372;2023-10-08T12:43:45;13.907692307692304;;;6.469230769230771;;
15557;SDS011;7880;50.110;9.372;2023-10-08T12:48:48;12.71538461538462;;;5.1692307692307695;;
15557;SDS011;7880;50.110;9.372;2023-10-08T12:53:59;12.938461538461542;;;6.969230769230771;;
15557;SDS011;7880;50.110;9.372;2023-10-08T12:58:59;15.569230769230773;;;5.5;;
15557;SDS011;7880;50.110;9.372;2023-10-08T13:04:07;11.115384615384615;;;5.799999999999998;;
15557;SDS011;7880;50.110;9.372;2023-10-08T13:09:12;14.476923076923072;;;6.4;;
15557;SDS011;7880;50.110;9.372;2023-10-08T13:12:59;12.461538461538462;;;6.046153846153844;;
15557;SDS011;7880;50.110;9.372;2023-10-08T13:18:05;11.792307692307693;;;5.130769230769232;;
15557;SDS011;7880;50.110;9.372;2023-10-08T13:23:09;8.969230769230771;;;5.230769230769231;;
15557;SDS011;7880;50.110;9.372;2023-10-08T13:28:14;12.66923076923077;;;5.799999999999998;;
15557;SDS011;7880;50.110;9.372;2023-10-08T13:33:19;9.599999999999998;;;5.1000000000000005;;
15557;SDS011;7880;50.110;9.372;2023-10-08T13:38:28;9.36923076923077;;;4.6000000000000005;;
15557;SDS011;7880;50.110;9.372;2023-10-08T13:43:36;12.038461538461538;;;6.06153846153846;;
15557;SDS011;7880;50.110;9.372;2023-10-08T13:48:39;8.299999999999999;;;5.200000000000001;;
15557;SDS011;7880;50.110;9.372;2023-10-08T13:53:47;10.238461538461536;;;4.761538461538462;;
15557;SDS011;7880;50.110;9.372;2023-10-08T13:58:56;12.346153846153847;;;5.46923076923077;;
15557;SDS011;7880;50.110;9.372;2023-10-08T14:04:04;14.953846153846156;;;6.230769230769231;;
15557;SDS011;7880;50.110;9.372;2023-10-08T14:09:07;11.853846153846153;;;6.438461538461538;;
15557;SDS011;7880;50.110;9.372;2023-10-08T14:14:08;14.661538461538463;;;7.36153846153846;;
15557;SDS011;7880;50.110;9.372;2023-10-08T14:19:17;12.623076923076924;;;6.13846153846154;;
15557;SDS011;7880;50.110;9.372;2023-10-08T14:24:18;14.630769230769225;;;6.299999999999998;;
15557;SDS011;7880;50.110;9.372;2023-10-08T14:29:27;12.269230769230765;;;7.369230769230768;;
15557;SDS011;7880;50.110;9.372;2023-10-08T14:42:55;9.538461538461538;;;5.9;;
15557;SDS011;7880;50.110;9.372;2023-10-08T14:47:37;14.053846153846157;;;6.353846153846155;;
15557;SDS011;7880;50.110;9.372;2023-10-08T14:52:42;13.438461538461542;;;6.738461538461536;;
15557;SDS011;7880;50.110;9.372;2023-10-08T14:57:48;8.400000000000002;;;5.799999999999998;;
15557;SDS011;7880;50.110;9.372;2023-10-08T15:02:55;11.315384615384614;;;6.469230769230771;;
15557;SDS011;7880;50.110;9.372;2023-10-08T15:08:01;11.33076923076923;;;6.36153846153846;;
15557;SDS011;7880;50.110;9.372;2023-10-08T15:13:09;11.33076923076923;;;5.799999999999998;;
15557;SDS011;7880;50.110;9.372;2023-10-08T15:18:14;10.338461538461539;;;5.969230769230771;;
15557;SDS011;7880;50.110;9.372;2023-10-08T15:23:17;10.63846153846154;;;5.9;;
15557;SDS011;7880;50.110;9.372;2023-10-08T15:28:21;10.576923076923078;;;5.6692307692307695;;
15557;SDS011;7880;50.110;9.372;2023-10-08T15:33:27;10.77692307692308;;;5.269230769230769;;
15557;SDS011;7880;50.110;9.372;2023-10-08T15:40:26;11.27692307692308;;;5.538461538461541;;
15557;SDS011;7880;50.110;9.372;2023-10-08T15:45:37;12.123076923076924;;;6.299999999999998;;
15557;SDS011;7880;50.110;9.372;2023-10-08T15:50:39;14.300000000000002;;;8.0;;
15557;SDS011;7880;50.110;9.372;2023-10-08T15:55:47;10.976923076923073;;;6.169230769230769;;
15557;SDS011;7880;50.110;9.372;2023-10-08T16:01:01;9.599999999999998;;;5.661538461538464;;
15557;SDS011;7880;50.110;9.372;2023-10-08T16:06:08;13.22307692307692;;;6.200000000000002;;
15557;SDS011;7880;50.110;9.372;2023-10-08T16:11:01;15.438461538461542;;;8.330769230769231;;
15557;SDS011;7880;50.110;9.372;2023-10-08T16:16:08;10.507692307692308;;;5.4;;
15557;SDS011;7880;50.110;9.372;2023-10-08T16:21:12;14.469230769230771;;;5.43076923076923;;
15557;SDS011;7880;50.110;9.372;2023-10-08T16:26:17;9.307692307692308;;;5.292307692307692;;
15557;SDS011;7880;50.110;9.372;2023-10-08T16:31:22;13.784615384615384;;;5.200000000000001;;
15557;SDS011;7880;50.110;9.372;2023-10-08T16:36:25;9.35384615384615;;;4.461538461538462;;
15557;SDS011;7880;50.110;9.372;2023-10-08T16:41:31;10.838461538461539;;;5.93076923076923;;
15557;SDS011;7880;50.110;9.372;2023-10-08T16:46:38;11.0;;;6.1;;
15557;SDS011;7880;50.110;9.372;2023-10-08T16:51:40;13.446153846153843;;;6.769230769230769;;
15557;SDS011;7880;50.110;9.372;2023-10-08T16:56:44;12.66923076923077;;;5.799999999999998;;
15557;SDS011;7880;50.110;9.372;2023-10-08T17:01:50;8.900000000000002;;;5.361538461538462;;
15557;SDS011;7880;50.110;9.372;2023-10-08T17:06:57;13.915384615384614;;;6.669230769230769;;
15557;SDS011;7880;50.110;9.372;2023-10-08T17:11:59;8.569230769230769;;;5.1000000000000005;;
15557;SDS011;7880;50.110;9.372;2023-10-08T17:17:06;11.069230769230767;;;4.93076923076923;;
15557;SDS011;7880;50.110;9.372;2023-10-08T17:22:09;9.569230769230769;;;5.6;;
15557;SDS011;7880;50.110;9.372;2023-10-08T17:27:17;10.400000000000002;;;5.9;;
15557;SDS011;7880;50.110;9.372;2023-10-08T17:32:31;11.599999999999996;;;5.6;;
15557;SDS011;7880;50.110;9.372;2023-10-08T17:37:24;8.761538461538462;;;5.061538461538462;;
15557;SDS011;7880;50.110;9.372;2023-10-08T17:42:36;10.13846153846154;;;5.799999999999998;;
15557;SDS011;7880;50.110;9.372;2023-10-08T17:47:42;13.761538461538457;;;8.207692307692305;;
15557;SDS011;7880;50.110;9.372;2023-10-08T17:52:49;13.246153846153849;;;7.700000000000002;;
15557;SDS011;7880;50.110;9.372;2023-10-08T17:57:54;12.969230769230771;;;7.230769230769231;;
15557;SDS011;7880;50.110;9.372;2023-10-08T18:03:03;7.292307692307693;;;5.361538461538462;;
15557;SDS011;7880;50.110;9.372;2023-10-08T18:08:06;8.36923076923077;;;4.569230769230769;;
15557;SDS011;7880;50.110;9.372;2023-10-08T18:13:09;8.723076923076924;;;6.061538461538462;;
15557;SDS011;7880;50.110;9.372;2023-10-08T18:18:15;8.792307692307691;;;5.1000000000000005;;
15557;SDS011;7880;50.110;9.372;2023-10-08T18:23:25;12.238461538461536;;;5.4;;
15557;SDS011;7880;50.110;9.372;2023-10-08T18:27:12;11.507692307692308;;;5.799999999999998;;
15557;SDS011;7880;50.110;9.372;2023-10-08T18:32:15;12.16923076923077;;;5.5;;
15557;SDS011;7880;50.110;9.372;2023-10-08T18:37:23;11.72307692307692;;;5.43076923076923;;
15557;SDS011;7880;50.110;9.372;2023-10-08T18:42:28;12.13846153846154;;;5.230769230769231;;
15557;SDS011;7880;50.110;9.372;2023-10-08T18:47:34;11.546153846153846;;;4.799999999999999;;
15557;SDS011;7880;50.110;9.372;2023-10-08T18:52:38;9.938461538461535;;;4.753846153846155;;
15557;SDS011;7880;50.110;9.372;2023-10-08T18:57:42;15.35384615384615;;;5.0;;
15557;SDS011;7880;50.110;9.372;2023-10-08T19:02:49;7.353846153846151;;;4.200000000000001;;
15557;SDS011;7880;50.110;9.372;2023-10-08T19:07:53;7.030769230769229;;;5.200000000000001;;
15557;SDS011;7880;50.110;9.372;2023-10-08T19:12:56;10.038461538461538;;;5.369230769230768;;
15557;SDS011;7880;50.110;9.372;2023-10-08T19:18:07;9.36923076923077;;;5.1000000000000005;;
15557;SDS011;7880;50.110;9.372;2023-10-08T19:23:12;9.507692307692308;;;6.5;;
15557;SDS011;7880;50.110;9.372;2023-10-08T19:28:33;4.807692307692308;;;4.06923076923077;;
15557;SDS011;7880;50.110;9.372;2023-10-08T19:33:21;7.130769230769232;;;3.7307692307692295;;
15557;SDS011;7880;50.110;9.372;2023-10-08T19:38:37;6.469230769230771;;;4.16923076923077;;
15557;SDS011;7880;50.110;9.372;2023-10-08T19:43:33;8.907692307692308;;;4.1000000000000005;;
15557;SDS011;7880;50.110;9.372;2023-10-08T19:48:36;9.299999999999999;;;3.93076923076923;;
15557;SDS011;7880;50.110;9.372;2023-10-08T19:53:50;7.176923076923078;;;3.169230769230769;;
15557;SDS011;7880;50.110;9.372;2023-10-08T19:58:55;7.500000000000002;;;3.600000000000001;;
15557;SDS011;7880;50.110;9.372;2023-10-08T20:03:58;3.630769230769232;;;3.100000000000001;;
15557;SDS011;7880;50.110;9.372;2023-10-08T20:09:06;5.115384615384614;;;3.06923076923077;;
15557;SDS011;7880;50.110;9.372;2023-10-08T20:14:11;7.60769230769231;;;3.869230769230768;;
15557;SDS011;7880;50.110;9.372;2023-10-08T20:19:14;6.269230769230769;;;2.8;;
15557;SDS011;7880;50.110;9.372;2023-10-08T20:24:38;4.700000000000001;;;2.8692307692307684;;
15557;SDS011;7880;50.110;9.372;2023-10-08T20:29:23;5.569230769230769;;;3.0;;
15557;SDS011;7880;50.110;9.372;2023-10-08T20:34:29;6.669230769230769;;;2.7;;
15557;SDS011;7880;50.110;9.372;2023-10-08T20:39:37;5.176923076923075;;;1.8999999999999997;;
15557;SDS011;7880;50.110;9.372;2023-10-08T20:44:52;4.0;;;2.3999999999999995;;
15557;SDS011;7880;50.110;9.372;2023-10-08T20:49:55;4.153846153846154;;;2.3999999999999995;;
15557;SDS011;7880;50.110;9.372;2023-10-08T20:54:59;3.7999999999999994;;;2.330769230769231;;
15557;SDS011;7880;50.110;9.372;2023-10-08T21:00:03;5.46923076923077;;;2.430769230769231;;
15557;SDS011;7880;50.110;9.372;2023-10-08T21:05:08;3.600000000000001;;;2.4692307692307693;;
15557;SDS011;7880;50.110;9.372;2023-10-08T21:10:14;5.707692307692307;;;2.3999999999999995;;
15557;SDS011;7880;50.110;9.372;2023-10-08T21:15:24;8.176923076923078;;;2.369230769230769;;
15557;SDS011;7880;50.110;9.372;2023-10-08T21:20:24;3.0230769230769217;;;2.1307692307692307;;
15557;SDS011;7880;50.110;9.372;2023-10-08T21:25:29;6.807692307692306;;;2.269230769230769;;
15557;SDS011;7880;50.110;9.372;2023-10-08T21:30:40;4.369230769230769;;;2.3999999999999995;;
15557;SDS011;7880;50.110;9.372;2023-10-08T21:35:43;6.0076923076923086;;;2.3999999999999995;;
15557;SDS011;7880;50.110;9.372;2023-10-08T21:40:57;8.192307692307692;;;2.230769230769231;;
15557;SDS011;7880;50.110;9.372;2023-10-08T21:45:53;3.469230769230769;;;2.369230769230769;;
15557;SDS011;7880;50.110;9.372;2023-10-08T21:50:57;3.630769230769232;;;2.3999999999999995;;
15557;SDS011;7880;50.110;9.372;2023-10-08T21:56:08;2.5;;;2.3000000000000003;;
15557;SDS011;7880;50.110;9.372;2023-10-08T22:01:09;5.238461538461538;;;2.1000000000000005;;
15557;SDS011;7880;50.110;9.372;2023-10-08T22:06:16;8.446153846153845;;;2.1999999999999997;;
15557;SDS011;7880;50.110;9.372;2023-10-08T22:11:19;2.6000000000000005;;;1.8692307692307695;;
15557;SDS011;7880;50.110;9.372;2023-10-08T22:16:32;4.369230769230769;;;2.1999999999999997;;
15557;SDS011;7880;50.110;9.372;2023-10-08T22:21:38;2.3000000000000003;;;2.0;;
15557;SDS011;7880;50.110;9.372;2023-10-08T22:26:36;3.007692307692307;;;2.253846153846154;;
15557;SDS011;7880;50.110;9.372;2023-10-08T22:31:39;5.353846153846154;;;1.9307692307692308;;
15557;SDS011;7880;50.110;9.372;2023-10-08T22:36:52;4.06923076923077;;;2.430769230769231;;
15557;SDS011;7880;50.110;9.372;2023-10-08T22:42:01;3.2307692307692295;;;2.0615384615384613;;
15557;SDS011;7880;50.110;9.372;2023-10-08T22:47:09;1.8999999999999997;;;1.6999999999999995;;